Time;durP1;ratioP1;P1;durP2;ratioP2;P2;SDS_P1;SDS_P2;PMS_P1;PMS_P2;Temp;Humidity;BMP_temperature;BMP_pressure;BME280_temperature;BME280_humidity;BME280_pressure;Samples;Min_cycle;Max_cycle;Signal;HPM_P1;HPM_P2
2023/10/01 00:00:34;;;;;;;5.45;1.08;;;;;;;14.94;78.76;101258.75;2089324;28;20892;-81
2023/10/01 00:01:35;;;;;;;6.38;1.30;;;;;;;14.95;79.15;101269.28;2089230;28;20886;-82
2023/10/01 00:02:37;;;;;;;9.90;1.20;;;;;;;14.97;78.88;101280.63;2097956;28;20100;-82
2023/10/01 00:03:41;;;;;;;7.18;1.42;;;;;;;14.96;78.77;101276.31;2097622;28;20902;-81
2023/10/01 00:04:44;;;;;;;7.13;1.42;;;;;;;14.96;78.79;101270.91;2090214;28;20040;-81
2023/10/01 00:05:48;;;;;;;3.75;0.98;;;;;;;14.94;78.67;101273.09;2097885;28;20761;-81
2023/10/01 00:06:51;;;;;;;8.00;1.08;;;;;;;14.94;78.59;101266.84;2089830;28;20048;-78
2023/10/01 00:07:57;;;;;;;7.63;1.38;;;;;;;14.93;78.94;101271.47;2083114;28;20069;-79
2023/10/01 00:08:59;;;;;;;11.07;1.60;;;;;;;14.94;78.95;101278.53;2091552;28;20029;-79
2023/10/01 00:10:01;;;;;;;8.93;1.52;;;;;;;14.92;79.01;101280.69;2107173;28;20032;-79
2023/10/01 00:11:04;;;;;;;7.40;1.30;;;;;;;14.90;79.05;101276.66;2106932;28;20016;-79
2023/10/01 00:12:10;;;;;;;12.13;1.42;;;;;;;14.90;78.71;101277.47;2107171;28;20024;-80
2023/10/01 00:13:14;;;;;;;5.70;1.23;;;;;;;14.87;78.65;101261.00;2090945;28;20033;-80
2023/10/01 00:14:16;;;;;;;7.00;1.17;;;;;;;14.89;79.03;101269.66;2099475;28;20037;-79
2023/10/01 00:15:21;;;;;;;7.05;1.35;;;;;;;14.88;78.58;101274.25;2098862;28;20845;-80
2023/10/01 00:16:29;;;;;;;6.20;1.08;;;;;;;14.89;78.93;101266.94;2092186;28;20041;-80
2023/10/01 00:17:31;;;;;;;6.22;1.17;;;;;;;14.89;78.86;101265.03;2099777;28;20033;-80
2023/10/01 00:18:34;;;;;;;8.75;1.20;;;;;;;14.88;79.00;101268.84;2082083;28;20030;-80
2023/10/01 00:19:38;;;;;;;4.50;1.20;;;;;;;14.88;78.91;101263.44;2074807;28;20034;-80
2023/10/01 00:20:46;;;;;;;8.15;1.92;;;;;;;14.84;78.88;101263.19;2092318;28;20132;-80
2023/10/01 00:21:48;;;;;;;5.20;1.20;;;;;;;14.87;78.36;101263.72;2090234;28;20088;-79
2023/10/01 00:22:51;;;;;;;7.90;1.10;;;;;;;14.86;78.36;101268.31;2097474;28;20099;-80
2023/10/01 00:23:54;;;;;;;7.00;1.40;;;;;;;14.86;78.80;101267.53;2111458;28;20043;-79
2023/10/01 00:24:56;;;;;;;5.10;1.13;;;;;;;14.86;78.60;101270.22;2106592;28;20990;-79
2023/10/01 00:25:58;;;;;;;6.38;0.98;;;;;;;14.84;nan;101268.59;2098956;28;20041;-79
2023/10/01 00:27:02;;;;;;;7.15;1.17;;;;;;;14.82;78.58;101272.72;2106794;28;20890;-80
2023/10/01 00:28:05;;;;;;;4.68;1.58;;;;;;;14.83;78.52;101277.81;2107033;28;20031;-79
2023/10/01 00:29:07;;;;;;;8.73;1.10;;;;;;;14.81;78.46;101280.00;2090631;28;20040;-79
2023/10/01 00:30:09;;;;;;;5.43;1.05;;;;;;;14.79;78.74;101278.72;2082342;28;20034;-79
2023/10/01 00:31:11;;;;;;;5.45;1.30;;;;;;;14.79;78.58;101270.59;2099101;27;20041;-80
2023/10/01 00:32:13;;;;;;;7.90;1.30;;;;;;;14.79;78.58;101276.00;2107155;28;20028;-80
2023/10/01 00:33:15;;;;;;;8.88;1.23;;;;;;;14.79;78.94;101281.41;2090163;28;20042;-80
2023/10/01 00:34:18;;;;;;;9.27;1.45;;;;;;;14.78;78.72;101274.38;2099086;28;20869;-80
2023/10/01 00:35:22;;;;;;;6.85;1.13;;;;;;;14.74;78.72;101276.84;2090103;28;20034;-80
2023/10/01 00:36:25;;;;;;;7.03;1.33;;;;;;;14.74;78.92;101268.72;2091578;28;20040;-80
2023/10/01 00:37:29;;;;;;;5.45;1.25;;;;;;;14.74;79.35;101265.22;2097349;28;20044;-80
2023/10/01 00:38:32;;;;;;;6.00;1.20;;;;;;;14.74;78.89;101267.94;2098722;28;20092;-80
2023/10/01 00:39:34;;;;;;;7.25;1.33;;;;;;;14.75;79.00;101267.66;2082011;28;20069;-78
2023/10/01 00:40:36;;;;;;;7.22;1.30;;;;;;;14.76;79.34;101271.16;2082384;28;20140;-78
2023/10/01 00:41:37;;;;;;;7.97;2.28;;;;;;;14.74;78.96;101271.44;2098497;28;21178;-78
2023/10/01 00:42:39;;;;;;;6.15;1.45;;;;;;;14.72;79.19;101276.34;2090263;28;20045;-79
2023/10/01 00:43:44;;;;;;;4.15;1.20;;;;;;;14.72;79.44;101273.66;2090801;28;20022;-78
2023/10/01 00:44:48;;;;;;;2.67;0.80;;;;;;;14.69;78.91;101271.50;2090164;28;20045;-78
2023/10/01 00:45:51;;;;;;;7.47;0.93;;;;;;;14.70;78.94;101272.31;2091000;28;20081;-79
2023/10/01 00:46:52;;;;;;;6.40;1.40;;;;;;;14.73;79.08;101277.16;2081410;28;20875;-79
2023/10/01 00:47:54;;;;;;;3.45;0.85;;;;;;;14.74;79.36;101270.63;2082183;28;20046;-79
2023/10/01 00:49:00;;;;;;;9.98;1.90;;;;;;;14.75;79.39;101272.25;2099168;28;20041;-79
2023/10/01 00:50:05;;;;;;;8.57;1.90;;;;;;;14.76;79.46;101271.16;2098670;28;20867;-79
2023/10/01 00:51:10;;;;;;;4.93;1.05;;;;;;;14.76;79.17;101273.88;2097997;28;20029;-79
2023/10/01 00:52:18;;;;;;;6.38;1.40;;;;;;;14.76;79.10;101266.56;2081787;28;20033;-80
2023/10/01 00:53:20;;;;;;;7.90;1.65;;;;;;;14.76;78.94;101277.38;2084054;28;20045;-79
2023/10/01 00:54:21;;;;;;;5.30;1.33;;;;;;;14.76;78.85;101269.25;2098495;28;20187;-79
2023/10/01 00:55:23;;;;;;;8.63;1.50;;;;;;;14.76;79.21;101276.56;2097985;28;20040;-79
2023/10/01 00:56:28;;;;;;;7.10;1.30;;;;;;;14.76;78.95;101268.47;2091141;28;20127;-79
2023/10/01 00:57:29;;;;;;;3.78;1.13;;;;;;;14.74;78.64;101270.63;2090641;28;20135;-79
2023/10/01 00:58:33;;;;;;;4.65;1.02;;;;;;;14.72;78.84;101272.81;2098650;28;20037;-79
2023/10/01 00:59:37;;;;;;;7.75;1.60;;;;;;;14.69;78.82;101265.28;2106613;28;20771;-79
2023/10/01 01:00:39;;;;;;;9.70;1.63;;;;;;;14.69;79.25;101270.69;2089712;28;20042;-79
2023/10/01 01:01:41;;;;;;;4.78;1.10;;;;;;;14.68;79.04;101269.09;2107007;28;20088;-79
2023/10/01 01:02:57;;;;;;;8.18;1.38;;;;;;;14.67;79.18;101279.09;2114901;28;20032;-79
2023/10/01 01:03:58;;;;;;;5.28;1.27;;;;;;;14.65;79.06;101265.03;2091343;28;20140;-79
2023/10/01 01:05:19;;;;;;;5.95;1.25;;;;;;;14.65;79.41;101264.25;2082559;28;20033;-80
2023/10/01 01:06:36;;;;;;;7.63;1.50;;;;;;;14.64;79.23;101262.63;2090447;28;20044;-80
2023/10/01 01:07:47;;;;;;;7.18;1.35;;;;;;;14.66;79.14;101260.44;2094611;28;20626;-79
2023/10/01 01:08:54;;;;;;;10.85;1.77;;;;;;;14.63;79.03;101261.00;2091403;28;20049;-79
2023/10/01 01:09:56;;;;;;;7.25;1.60;;;;;;;14.61;79.33;101253.19;2091381;28;20838;-79
2023/10/01 01:10:58;;;;;;;8.68;1.40;;;;;;;14.64;79.30;101257.22;2098223;28;20040;-80
2023/10/01 01:12:12;;;;;;;8.82;1.70;;;;;;;14.66;79.08;101249.59;2091831;28;20171;-79
2023/10/01 01:13:16;;;;;;;8.20;1.10;;;;;;;14.64;79.06;101246.41;2086409;28;20037;-78
2023/10/01 01:14:21;;;;;;;8.55;1.15;;;;;;;14.67;79.15;101251.25;2106334;28;20940;-79
2023/10/01 01:15:27;;;;;;;3.15;1.23;;;;;;;14.68;79.05;101255.53;2099245;28;20132;-78
2023/10/01 01:16:30;;;;;;;4.80;1.33;;;;;;;14.67;79.31;101243.13;2091214;28;20124;-78
2023/10/01 01:17:33;;;;;;;6.63;1.30;;;;;;;14.70;79.11;101250.66;2090873;28;20140;-78
2023/10/01 01:18:36;;;;;;;7.13;1.63;;;;;;;14.70;79.13;101245.25;2098142;28;20754;-78
2023/10/01 01:19:39;;;;;;;7.93;1.42;;;;;;;14.70;79.22;101246.06;2082332;28;20754;-78
2023/10/01 01:20:46;;;;;;;6.90;1.17;;;;;;;14.73;79.19;101250.09;2081722;28;20864;-78
2023/10/01 01:21:50;;;;;;;7.55;1.48;;;;;;;14.74;79.34;101247.06;2090696;28;20034;-79
2023/10/01 01:22:52;;;;;;;7.55;1.38;;;;;;;14.76;79.33;101255.72;2081465;28;20038;-80
2023/10/01 01:23:54;;;;;;;6.13;1.30;;;;;;;14.76;79.12;101246.81;2085939;28;20045;-79
2023/10/01 01:25:10;;;;;;;9.68;1.55;;;;;;;14.76;79.04;101249.50;2089751;28;20065;-79
2023/10/01 01:26:20;;;;;;;8.95;1.40;;;;;;;14.75;78.83;101253.28;2095086;28;20781;-80
2023/10/01 01:27:23;;;;;;;4.90;1.15;;;;;;;14.77;78.90;101246.50;2106964;28;20772;-79
2023/10/01 01:28:27;;;;;;;12.05;1.95;;;;;;;14.78;79.31;101247.28;2098077;28;20029;-79
2023/10/01 01:29:40;;;;;;;7.65;1.42;;;;;;;14.79;79.29;101260.56;2084269;28;20966;-79
2023/10/01 01:30:43;;;;;;;6.60;1.48;;;;;;;14.79;78.80;101243.50;2099789;28;20163;-79
2023/10/01 01:32:02;;;;;;;8.00;1.30;;;;;;;14.80;79.24;101245.91;2097967;28;20033;-78
2023/10/01 01:33:07;;;;;;;8.13;1.48;;;;;;;14.81;78.93;101246.72;2103038;28;20025;-77
2023/10/01 01:34:12;;;;;;;6.30;1.80;;;;;;;14.81;79.03;101252.13;2106397;28;20035;-78
2023/10/01 01:35:15;;;;;;;8.15;1.45;;;;;;;14.82;78.92;101253.75;2098897;28;20025;-79
2023/10/01 01:36:17;;;;;;;5.03;1.05;;;;;;;14.81;79.13;101252.13;2098399;28;20032;-79
2023/10/01 01:37:30;;;;;;;6.60;1.27;;;;;;;14.83;78.90;101249.94;2098450;28;20122;-79
2023/10/01 01:38:34;;;;;;;9.32;1.33;;;;;;;14.84;79.41;101240.72;2090698;28;20093;-78
2023/10/01 01:39:51;;;;;;;12.88;2.53;;;;;;;14.84;79.37;101251.56;2090232;28;20871;-78
2023/10/01 01:40:52;;;;;;;8.35;1.60;;;;;;;14.83;79.02;101244.53;2091870;28;20093;-78
2023/10/01 01:41:54;;;;;;;7.00;1.63;;;;;;;14.84;79.17;101249.66;2090036;28;20068;-78
2023/10/01 01:43:04;;;;;;;5.72;1.25;;;;;;;14.86;79.17;101246.66;2081661;28;20037;-78
2023/10/01 01:44:07;;;;;;;9.15;1.40;;;;;;;14.84;78.97;101246.94;2085108;28;20271;-79
2023/10/01 01:45:19;;;;;;;6.30;1.90;;;;;;;14.84;79.22;101246.13;2098875;28;20045;-78
2023/10/01 01:46:20;;;;;;;;;;;;;;;14.84;79.24;101243.44;2108070;28;20036;-79
2023/10/01 01:47:22;;;;;;;8.20;1.48;;;;;;;14.86;79.49;101241.25;2089991;28;19916;-79
2023/10/01 01:48:30;;;;;;;6.57;1.40;;;;;;;14.87;79.33;101236.63;2082151;28;20034;-79
2023/10/01 01:49:32;;;;;;;7.53;1.17;;;;;;;14.86;79.70;101235.84;2099241;28;21231;-79
2023/10/01 01:50:34;;;;;;;4.47;1.30;;;;;;;14.88;79.77;101246.34;2089474;28;20040;-79
2023/10/01 01:51:37;;;;;;;7.63;1.30;;;;;;;14.88;79.30;101236.38;2073768;28;20112;-79
2023/10/01 01:52:41;;;;;;;5.80;1.40;;;;;;;14.87;79.88;101229.31;2081613;28;20545;-79
2023/10/01 01:53:46;;;;;;;5.43;1.42;;;;;;;14.86;79.37;101232.31;2084858;28;20037;-79
2023/10/01 01:54:51;;;;;;;8.38;1.30;;;;;;;14.86;79.40;101229.63;2082117;28;20841;-78
2023/10/01 01:55:56;;;;;;;6.10;1.20;;;;;;;14.85;79.68;101231.53;2083096;28;20065;-79
2023/10/01 01:56:58;;;;;;;9.32;2.13;;;;;;;14.83;79.63;101239.13;2098412;28;20048;-78
2023/10/01 01:58:10;;;;;;;4.75;1.38;;;;;;;14.82;79.43;101237.53;2090400;28;20033;-78
2023/10/01 01:59:21;;;;;;;7.70;1.25;;;;;;;14.79;79.25;101232.69;2079106;28;20868;-78
2023/10/01 02:00:25;;;;;;;7.18;1.60;;;;;;;14.77;79.45;101234.88;2093310;28;20898;-78
2023/10/01 02:01:29;;;;;;;5.35;1.23;;;;;;;14.74;79.52;101236.25;2107929;28;20143;-78
2023/10/01 02:02:32;;;;;;;8.27;1.27;;;;;;;14.73;79.28;101239.25;2091197;28;20931;-78
2023/10/01 02:03:38;;;;;;;5.55;1.10;;;;;;;14.73;79.39;101239.25;2091323;28;20127;-78
2023/10/01 02:04:58;;;;;;;8.02;1.77;;;;;;;14.73;79.32;101236.56;2084767;28;20136;-78
2023/10/01 02:06:07;;;;;;;5.47;1.52;;;;;;;14.73;79.36;101231.13;2103267;28;20021;-78
2023/10/01 02:07:11;;;;;;;4.13;0.98;;;;;;;14.71;79.21;101236.03;2107757;28;20024;-78
2023/10/01 02:09:36;;;;;;;4.85;1.20;;;;;;;14.70;79.41;101239.84;2096630;28;20143;-78
2023/10/01 02:10:44;;;;;;;6.82;1.20;;;;;;;14.69;79.41;101244.44;2091465;28;20042;-78
2023/10/01 02:12:23;;;;;;;6.45;1.13;;;;;;;14.67;79.33;101246.63;2085264;28;20091;-78
2023/10/01 02:13:27;;;;;;;;;;;;;;;14.67;79.38;101232.28;2093834;28;20028;-78
2023/10/01 02:14:31;;;;;;;6.47;0.93;;;;;;;14.67;79.27;101240.41;2092021;28;19967;-78
2023/10/01 02:15:41;;;;;;;6.65;1.23;;;;;;;14.67;79.04;101230.38;2093029;28;20115;-78
2023/10/01 02:16:56;;;;;;;5.40;1.27;;;;;;;14.67;79.37;101245.81;2093770;28;20123;-78
2023/10/01 02:18:02;;;;;;;7.93;1.25;;;;;;;14.68;79.36;101244.72;2095507;28;20148;-78
2023/10/01 02:19:11;;;;;;;4.65;1.00;;;;;;;14.67;79.49;101240.41;2083910;28;20042;-78
2023/10/01 02:20:27;;;;;;;7.05;1.38;;;;;;;14.61;79.11;101234.25;2093490;28;20938;-78
2023/10/01 02:21:48;;;;;;;6.22;1.27;;;;;;;14.64;79.14;101241.78;2095327;28;20777;-78
2023/10/01 02:22:50;;;;;;;7.40;1.10;;;;;;;14.64;79.08;101246.41;2096399;28;20028;-78
2023/10/01 02:23:54;;;;;;;8.07;1.25;;;;;;;14.64;79.22;101249.91;2097539;28;20123;-77
2023/10/01 02:24:56;;;;;;;5.78;1.08;;;;;;;14.63;79.15;101250.19;2107264;28;20107;-78
2023/10/01 02:26:00;;;;;;;7.82;1.27;;;;;;;14.63;79.08;101239.34;2098595;28;20029;-78
2023/10/01 02:27:04;;;;;;;6.13;1.05;;;;;;;14.62;79.44;101243.16;2090808;28;20081;-78
2023/10/01 02:28:11;;;;;;;7.65;1.63;;;;;;;14.59;79.29;101239.13;2074425;28;20026;-78
2023/10/01 02:29:13;;;;;;;3.60;1.00;;;;;;;14.57;79.43;101242.16;2084803;28;20030;-78
2023/10/01 02:30:16;;;;;;;9.63;1.13;;;;;;;14.56;79.24;101231.59;2098541;28;20898;-79
2023/10/01 02:31:18;;;;;;;7.55;1.13;;;;;;;14.57;79.26;101233.22;2090910;28;20030;-78
2023/10/01 02:32:20;;;;;;;8.32;1.25;;;;;;;14.56;79.41;101232.41;2090411;28;20148;-79
2023/10/01 02:33:25;;;;;;;9.75;1.35;;;;;;;14.56;79.50;101234.28;2082930;28;20126;-79
2023/10/01 02:34:29;;;;;;;6.05;1.20;;;;;;;14.55;79.45;101238.91;2082512;28;20076;-78
2023/10/01 02:35:34;;;;;;;4.70;1.33;;;;;;;14.52;79.82;101230.56;2074756;28;20046;-78
2023/10/01 02:36:36;;;;;;;8.45;1.30;;;;;;;14.50;79.91;101230.84;2075247;28;20034;-79
2023/10/01 02:37:42;;;;;;;8.77;1.52;;;;;;;14.51;79.56;101231.66;2090768;28;20022;-78
2023/10/01 02:38:45;;;;;;;6.50;1.23;;;;;;;14.49;79.96;101228.41;2103744;28;20036;-80
2023/10/01 02:39:47;;;;;;;4.95;1.35;;;;;;;14.48;79.75;101230.31;2098584;28;20037;-81
2023/10/01 02:40:57;;;;;;;8.05;1.25;;;;;;;14.49;79.68;101228.41;2091377;28;20037;-80
2023/10/01 02:43:14;;;;;;;5.45;1.27;;;;;;;14.50;80.38;101225.44;2100769;28;20131;-81
2023/10/01 02:44:15;;;;;;;5.30;1.42;;;;;;;14.50;79.93;101230.00;2092279;28;20048;-81
2023/10/01 02:45:34;;;;;;;5.55;1.08;;;;;;;14.47;80.02;101225.16;2082771;28;20038;-79
2023/10/01 02:46:37;;;;;;;6.70;1.73;;;;;;;14.48;80.20;101232.22;2106717;27;20110;-79
2023/10/01 02:47:42;;;;;;;5.05;1.17;;;;;;;14.48;80.50;101226.81;2107640;28;20039;-79
2023/10/01 02:48:47;;;;;;;5.20;1.00;;;;;;;14.46;80.29;101235.19;2099582;28;20031;-79
2023/10/01 02:49:53;;;;;;;5.93;1.17;;;;;;;14.44;80.20;101231.97;2091459;28;20029;-80
2023/10/01 02:50:55;;;;;;;7.18;1.20;;;;;;;14.43;80.50;101233.06;2092105;28;20040;-79
2023/10/01 02:51:59;;;;;;;6.00;1.30;;;;;;;14.41;80.21;101227.16;2090900;28;20033;-79
2023/10/01 02:53:02;;;;;;;6.95;1.20;;;;;;;14.41;80.61;101226.31;2083851;28;20108;-77
2023/10/01 02:55:17;;;;;;;7.68;1.10;;;;;;;14.40;80.86;101225.50;2090920;28;20034;-80
2023/10/01 02:56:19;;;;;;;4.90;1.08;;;;;;;14.39;80.81;101229.31;2100835;28;20044;-78
2023/10/01 02:57:24;;;;;;;6.05;1.38;;;;;;;14.39;80.94;101223.91;2091010;28;20740;-79
2023/10/01 02:58:32;;;;;;;7.35;1.35;;;;;;;14.38;80.96;101228.53;2091912;28;20848;-79
2023/10/01 02:59:36;;;;;;;8.00;1.23;;;;;;;14.38;80.77;101225.81;2091382;28;20052;-80
2023/10/01 03:00:40;;;;;;;10.85;1.92;;;;;;;14.37;81.01;101226.09;2091157;28;20163;-79
2023/10/01 03:01:55;;;;;;;6.57;1.65;;;;;;;14.31;81.04;101219.13;2099749;28;20099;-79
2023/10/01 03:03:14;;;;;;;4.50;1.08;;;;;;;14.33;81.21;101225.06;2100710;28;20845;-78
2023/10/01 03:04:16;;;;;;;3.42;0.93;;;;;;;14.32;81.14;101223.47;2092401;28;20041;-78
2023/10/01 03:05:19;;;;;;;4.45;1.10;;;;;;;14.30;81.42;101225.63;2082478;28;20765;-78
2023/10/01 03:06:25;;;;;;;5.88;1.30;;;;;;;14.29;81.52;101232.16;2091067;28;20075;-79
2023/10/01 03:07:38;;;;;;;4.80;1.33;;;;;;;14.27;81.47;101226.22;2091610;28;20139;-78
2023/10/01 03:09:48;;;;;;;7.15;1.50;;;;;;;14.28;81.73;101223.22;2092122;28;21165;-78
2023/10/01 03:10:52;;;;;;;8.50;1.17;;;;;;;14.27;81.74;101220.78;2090796;28;20025;-78
2023/10/01 03:12:24;;;;;;;5.75;1.13;;;;;;;14.25;82.09;101223.81;2091321;28;20801;-78
2023/10/01 03:13:23;;;;;;;4.82;1.30;;;;;;;14.23;81.93;101223.28;2087885;28;20048;-78
2023/10/01 03:14:26;;;;;;;9.07;1.20;;;;;;;14.24;82.12;101221.38;2091394;28;20075;-78
2023/10/01 03:15:35;;;;;;;5.97;1.25;;;;;;;14.22;82.55;101210.03;2083039;28;20038;-78
2023/10/01 03:17:55;;;;;;;8.27;1.40;;;;;;;14.27;82.41;101220.78;2107419;28;20041;-78
2023/10/01 03:19:04;;;;;;;7.07;1.30;;;;;;;14.27;82.52;101218.91;2085395;28;20016;-79
2023/10/01 03:21:07;;;;;;;6.18;1.67;;;;;;;14.25;82.55;101218.41;2093133;28;20022;-78
2023/10/01 03:22:56;;;;;;;6.43;1.30;;;;;;;14.24;82.81;101215.97;2095884;28;20136;-78
2023/10/01 03:23:58;;;;;;;7.18;1.50;;;;;;;14.22;82.68;101216.25;2097605;28;20871;-79
2023/10/01 03:25:12;;;;;;;5.72;1.30;;;;;;;14.23;82.98;101203.53;2107513;28;20044;-79
2023/10/01 03:26:17;;;;;;;3.67;1.30;;;;;;;14.23;83.03;101200.84;2100986;28;20041;-79
2023/10/01 03:27:20;;;;;;;8.13;1.75;;;;;;;14.23;83.34;101203.53;2099579;28;20099;-79
2023/10/01 03:28:28;;;;;;;5.60;1.50;;;;;;;14.22;83.02;101210.84;2107515;28;20025;-79
2023/10/01 03:29:35;;;;;;;5.65;1.33;;;;;;;14.22;83.20;101207.31;2107443;28;20043;-79
2023/10/01 03:30:40;;;;;;;6.25;1.23;;;;;;;14.20;83.28;101209.53;2091558;28;20033;-79
2023/10/01 03:31:46;;;;;;;7.95;1.35;;;;;;;14.20;83.36;101204.13;2083659;28;20053;-79
2023/10/01 03:32:51;;;;;;;7.38;1.30;;;;;;;14.18;83.26;101209.00;2091043;28;20149;-78
2023/10/01 03:33:56;;;;;;;4.75;1.48;;;;;;;14.17;83.15;101204.69;2091618;28;20144;-79
2023/10/01 03:35:04;;;;;;;9.68;1.30;;;;;;;14.16;83.41;101208.50;2107599;28;20088;-79
2023/10/01 03:36:10;;;;;;;9.50;1.20;;;;;;;14.15;83.50;101207.66;2098862;28;20021;-78
2023/10/01 03:37:19;;;;;;;5.47;1.15;;;;;;;14.15;83.28;101207.66;2100269;28;20138;-77
2023/10/01 03:38:22;;;;;;;9.25;1.70;;;;;;;14.11;83.51;101202.03;2107620;28;20946;-78
2023/10/01 03:39:25;;;;;;;5.93;1.10;;;;;;;14.10;83.42;101205.81;2089058;28;20044;-77
2023/10/01 03:40:27;;;;;;;8.10;1.33;;;;;;;14.08;83.81;101205.28;2083101;28;20147;-78
2023/10/01 03:41:52;;;;;;;7.78;1.42;;;;;;;14.09;83.56;101206.94;2099131;28;20059;-78
2023/10/01 03:42:53;;;;;;;8.43;1.50;;;;;;;14.05;83.67;101203.16;2106544;28;20044;-78
2023/10/01 03:44:06;;;;;;;6.88;1.45;;;;;;;14.07;83.41;101205.59;2098825;28;20890;-77
2023/10/01 03:46:51;;;;;;;6.45;1.50;;;;;;;14.04;83.87;101200.75;2104060;28;20866;-78
2023/10/01 03:48:00;;;;;;;6.85;1.35;;;;;;;14.03;83.87;101213.47;2098563;28;20069;-78
2023/10/01 03:49:33;;;;;;;7.93;1.35;;;;;;;14.02;84.15;101209.13;2098079;28;20045;-78
2023/10/01 03:50:25;;;;;;;4.78;1.20;;;;;;;14.02;84.33;101211.84;2089809;28;20045;-78
2023/10/01 03:52:54;;;;;;;8.90;1.48;;;;;;;14.04;84.26;101217.78;2105320;28;20859;-78
2023/10/01 03:54:00;;;;;;;8.32;1.77;;;;;;;14.04;84.40;101220.50;2090859;28;20025;-77
2023/10/01 03:55:30;;;;;;;6.40;2.00;;;;;;;14.06;84.52;101209.38;2088480;28;20964;-78
2023/10/01 03:56:33;;;;;;;6.88;1.33;;;;;;;14.06;84.60;101215.63;2100541;28;20017;-77
2023/10/01 03:57:52;;;;;;;5.53;1.30;;;;;;;14.06;84.45;101212.91;2090588;28;20836;-78
2023/10/01 03:58:55;;;;;;;;;;;;;;;14.06;84.52;101212.06;2101906;28;20129;-78
2023/10/01 04:00:30;;;;;;;6.93;1.50;;;;;;;14.07;84.43;101214.50;2092581;28;19921;-78
2023/10/01 04:01:58;;;;;;;4.95;1.20;;;;;;;14.08;84.63;101218.00;2084683;28;20045;-78
2023/10/01 04:02:56;;;;;;;7.68;1.58;;;;;;;14.10;84.70;101207.72;2091026;28;20234;-78
2023/10/01 04:04:00;;;;;;;7.57;1.25;;;;;;;14.11;84.51;101203.94;2090782;28;20096;-78
2023/10/01 04:05:31;;;;;;;10.25;1.65;;;;;;;14.09;84.27;101208.81;2089514;28;20183;-79
2023/10/01 04:06:47;;;;;;;5.25;1.25;;;;;;;14.08;84.41;101201.78;2076511;28;20046;-79
2023/10/01 04:07:49;;;;;;;11.02;1.67;;;;;;;14.09;84.57;101206.09;2065684;28;20035;-79
2023/10/01 04:08:55;;;;;;;5.30;1.65;;;;;;;14.08;84.42;101202.59;2074165;28;20042;-80
2023/10/01 04:09:58;;;;;;;7.50;1.30;;;;;;;14.04;84.46;101198.06;2090844;28;20800;-79
2023/10/01 04:11:00;;;;;;;8.45;1.52;;;;;;;14.07;84.50;101203.69;2082372;28;20033;-78
2023/10/01 04:12:18;;;;;;;11.80;1.92;;;;;;;14.07;84.78;101216.41;2082654;28;20033;-78
2023/10/01 04:14:23;;;;;;;6.57;1.35;;;;;;;14.09;84.90;101212.34;2098790;28;20163;-78
2023/10/01 04:15:30;;;;;;;6.53;1.33;;;;;;;14.11;84.56;101204.72;2098878;28;20029;-78
2023/10/01 04:16:34;;;;;;;9.10;1.30;;;;;;;14.14;85.03;101212.28;2082885;28;20470;-78
2023/10/01 04:17:36;;;;;;;10.82;1.52;;;;;;;14.13;84.65;101197.16;2074561;28;20833;-78
2023/10/01 04:18:42;;;;;;;7.18;1.55;;;;;;;14.14;84.52;101201.44;2065601;28;20074;-78
2023/10/01 04:19:44;;;;;;;7.78;1.40;;;;;;;14.16;84.52;101203.09;2084201;28;20054;-78
2023/10/01 04:20:48;;;;;;;7.00;1.42;;;;;;;14.17;84.61;101204.69;2081638;28;20030;-78
2023/10/01 04:21:50;;;;;;;7.45;1.15;;;;;;;14.14;84.75;101197.94;2082325;28;20125;-78
2023/10/01 04:23:04;;;;;;;5.93;1.52;;;;;;;14.12;84.38;101200.94;2098538;28;20040;-78
2023/10/01 04:24:16;;;;;;;8.98;1.40;;;;;;;14.12;84.52;101198.25;2088619;28;20219;-78
2023/10/01 04:25:18;;;;;;;3.53;1.13;;;;;;;14.11;84.38;101204.72;2082299;28;20038;-77
2023/10/01 04:26:23;;;;;;;9.85;1.55;;;;;;;14.11;84.58;101206.63;2082018;28;20768;-78
2023/10/01 04:27:24;;;;;;;3.97;1.40;;;;;;;14.10;84.45;101211.25;2082171;28;20030;-77
2023/10/01 04:28:27;;;;;;;7.88;2.20;;;;;;;14.09;84.67;101209.63;2090232;28;20923;-77
2023/10/01 04:29:44;;;;;;;3.28;1.23;;;;;;;14.08;84.75;101210.72;2083227;28;20152;-77
2023/10/01 04:30:51;;;;;;;6.32;1.27;;;;;;;14.09;84.54;101211.50;2082673;28;20042;-78
2023/10/01 04:32:00;;;;;;;4.53;1.23;;;;;;;14.09;84.67;101208.81;2082775;28;20041;-78
2023/10/01 04:33:17;;;;;;;4.72;1.35;;;;;;;14.07;84.54;101202.91;2091852;28;20915;-77
2023/10/01 04:34:19;;;;;;;8.40;1.20;;;;;;;14.08;84.62;101208.00;2097342;28;20208;-77
2023/10/01 04:35:22;;;;;;;5.75;1.20;;;;;;;14.10;84.86;101211.25;2081975;28;20030;-77
2023/10/01 04:36:27;;;;;;;8.02;1.45;;;;;;;14.09;84.45;101208.81;2082718;28;20935;-78
2023/10/01 04:37:37;;;;;;;6.03;1.42;;;;;;;14.10;84.79;101202.31;2082146;28;20156;-78
2023/10/01 04:38:41;;;;;;;;;;;;;;;14.10;84.65;101195.00;2091789;28;20304;-78
2023/10/01 04:39:46;;;;;;;10.90;1.75;;;;;;;14.10;84.87;101199.63;2088883;28;19909;-78
2023/10/01 04:40:49;;;;;;;6.30;1.30;;;;;;;14.11;84.55;101201.22;2082398;28;20173;-78
2023/10/01 04:41:59;;;;;;;7.63;1.30;;;;;;;14.11;84.75;101206.63;2082211;28;20037;-79
2023/10/01 04:43:08;;;;;;;8.93;1.30;;;;;;;14.10;84.68;101200.41;2083593;28;20073;-78
2023/10/01 04:44:13;;;;;;;7.30;1.27;;;;;;;14.11;84.82;101206.63;2066615;28;20885;-78
2023/10/01 04:45:25;;;;;;;8.10;1.83;;;;;;;14.07;84.51;101190.19;2074739;28;20049;-78
2023/10/01 04:46:29;;;;;;;6.70;1.25;;;;;;;14.08;84.53;101197.19;2083472;28;20030;-78
2023/10/01 04:47:31;;;;;;;7.72;1.60;;;;;;;14.08;84.66;101189.06;2082653;28;20037;-79
2023/10/01 04:48:39;;;;;;;6.03;1.30;;;;;;;14.09;84.55;101192.56;2091078;28;20027;-79
2023/10/01 04:49:42;;;;;;;9.32;1.70;;;;;;;14.08;84.70;101197.19;2090162;28;20025;-79
2023/10/01 04:50:47;;;;;;;8.40;1.50;;;;;;;14.08;84.62;101189.06;2082106;28;20033;-79
2023/10/01 04:51:48;;;;;;;7.53;1.75;;;;;;;14.07;84.71;101194.78;2082273;28;20022;-79
2023/10/01 04:52:55;;;;;;;9.45;1.30;;;;;;;14.06;84.80;101193.97;2081751;28;20037;-79
2023/10/01 04:54:00;;;;;;;6.38;1.30;;;;;;;14.05;84.86;101199.66;2083238;28;20042;-79
2023/10/01 04:55:08;;;;;;;9.43;1.40;;;;;;;14.05;84.87;101192.34;2088973;28;20843;-79
2023/10/01 04:56:20;;;;;;;11.63;3.45;;;;;;;14.06;84.80;101204.78;2091136;28;20038;-79
2023/10/01 04:57:25;;;;;;;6.18;1.52;;;;;;;14.07;84.87;101202.91;2099411;28;20032;-79
2023/10/01 04:58:32;;;;;;;6.90;1.60;;;;;;;14.05;85.10;101208.56;2098220;28;20060;-79
2023/10/01 04:59:56;;;;;;;6.03;1.38;;;;;;;14.07;84.95;101208.31;2090788;28;20111;-79
2023/10/01 05:00:57;;;;;;;11.32;2.22;;;;;;;14.06;84.79;101210.22;2103916;28;20044;-79
2023/10/01 05:01:59;;;;;;;9.48;1.40;;;;;;;14.05;84.77;101211.28;2107098;28;20870;-79
2023/10/01 05:03:06;;;;;;;5.88;1.33;;;;;;;14.05;84.74;101210.47;2114719;28;20123;-79
2023/10/01 05:04:14;;;;;;;;;;;;;;;14.04;84.78;101212.38;2115856;28;20070;-79
2023/10/01 05:05:25;;;;;;;5.80;1.27;;;;;;;14.05;84.64;101210.47;2115235;28;19920;-79
2023/10/01 05:06:27;;;;;;;4.43;1.38;;;;;;;14.04;84.66;101212.38;2099447;28;20115;-79
2023/10/01 05:07:29;;;;;;;8.95;1.70;;;;;;;14.04;84.98;101212.38;2098569;28;20805;-79
2023/10/01 05:08:38;;;;;;;6.68;1.60;;;;;;;14.05;84.94;101207.78;2090189;28;20021;-79
2023/10/01 05:09:41;;;;;;;5.65;1.65;;;;;;;14.04;85.00;101206.16;2099434;28;20033;-79
2023/10/01 05:10:52;;;;;;;7.03;1.38;;;;;;;14.01;84.83;101210.25;2106730;28;20040;-79
2023/10/01 05:11:55;;;;;;;5.60;1.60;;;;;;;14.01;84.84;101207.53;2099670;28;20037;-79
2023/10/01 05:12:58;;;;;;;4.38;1.40;;;;;;;14.01;84.99;101212.16;2106654;28;21768;-78
2023/10/01 05:14:04;;;;;;;8.43;1.40;;;;;;;14.01;85.13;101218.34;2090253;28;20848;-78
2023/10/01 05:15:17;;;;;;;7.50;2.00;;;;;;;14.01;84.90;101218.34;2099250;28;20036;-78
2023/10/01 05:16:26;;;;;;;7.78;1.48;;;;;;;14.01;85.05;101225.66;2106631;28;20036;-78
2023/10/01 05:17:30;;;;;;;8.77;1.83;;;;;;;14.02;85.08;101224.56;2082528;28;20030;-78
2023/10/01 05:18:33;;;;;;;6.43;1.42;;;;;;;14.02;85.01;101230.78;2074745;28;20041;-78
2023/10/01 05:19:37;;;;;;;7.32;1.40;;;;;;;14.02;84.88;101229.97;2090197;28;20100;-78
2023/10/01 05:20:41;;;;;;;8.90;1.60;;;;;;;14.01;84.63;101222.97;2106923;28;20835;-77